أريحا, Jordan

08:08 PM EEST on أمتèبر 01, 2016 (GMT +0300)
Ben Gurion | | Change Station

Elev 161 ft 32.01 °N, 34.89 °E | Updated 18 minutes ago

Clear
صافية
82 °F
Feels Like 82 °F
N
5
ريح متغير ريح from NNW

هذا اليوم
High -- | Low -- °F
--% Chance of Precip.
Yesterday
High -- | Low -- °F
Precip. -- في
الضغط 29.86 في
وضوح الرؤية -9999.0 أميال
سحابات
مؤشر الحرارة 82 °F
نقطة الندى 59 °F
الرطوبة 45%
Rainfall 0.00 في
عمق الثلج Not available.
6:32 AM 6:22 PM
قمر جدید, 0% visible
METAR LLBG 011650Z 34004KT CAVOK 28/15 Q1011 NOSIG RMK REP AT 1645Z 600FT-WIND 020/25KT IN APCH RWY12
الضغط 29.86 في
وضوح الرؤية -9999.0 أميال
سحابات
مؤشر الحرارة 82 °F
نقطة الندى 59 °F
الرطوبة 45%
Rainfall 0.00 في
عمق الثلج Not available.
6:32 AM 6:22 PM
قمر جدید, 0% visible
METAR LLBG 011650Z 34004KT CAVOK 28/15 Q1011 NOSIG RMK REP AT 1645Z 600FT-WIND 020/25KT IN APCH RWY12

10-Day Weather Forecast

No radar image for this location.
×

Almanac

علم الفلك

Oct. 01, 2016 Rise Set
Actual Time
Civil Twilight
Nautical Twilight
Astronomical Twilight
قمر
Length Of Visible Light
طول الیوم
Tomorrow will be .
, % of the Moon is Illuminated

Today's Extremes

Country Highs Country Lows

Community

WunderPhotos

Upload Photos

1,942,962 photos uploaded!

WunderBlog® & News

Nearby

جودة الهواء

  جودة الهواء AQ Index Pollutant
Not available.

عمق الثلج

Station Depth Elevation

Earthquake Activity

City Distance Mag. Time & Date
Minimum magnitude displayed is 2.5.

Coastal Water Temperatures

مكان درجات الحرارة

Stations

Nearby Weather Stations

Station Location الحرارة رياح باردة نقطة الندى الرطوبة ريح Precip. Elev تحديث Type